Foymount, Canada
Current Conditions -  °F | °C
As of 3:00 PM on Friday 28 Nov 2014 (Local Time) from CYWA Reporting Station
Broken Clouds Broken Clouds  
Wind Chill: 17°   Ceiling: 3100
Heat Index: 23°   Visibility: 9mi
Dew Point:   Wind: 5mph
Humidity: 46%   Direction: 300°WNW
Pressure: 30.15"   Gusts: NA
Location:  45.45°N, 77.32°W
Report Text: CYWA 282000Z AUTO 30004KT 280V360 9SM BKN031 M05/M15 A3015 RMKSLP218
Loading
Personal Weather Stations






























Interactive Weather Map New forecast layout! Learn more

10-Day Weather Forecast

Advertisements
Track Severe Weather on mobile